createdAt,value
2023-03-11T00:02:01.960Z,1.57
2023-03-11T00:05:02.045Z,1.92
2023-03-11T00:08:02.061Z,1.86
2023-03-11T00:11:01.944Z,2.01
2023-03-11T00:14:02.049Z,2.12
2023-03-11T00:17:01.978Z,2.34
2023-03-11T00:20:01.978Z,2.06
2023-03-11T00:23:02.036Z,1.86
2023-03-11T00:26:01.984Z,1.79
2023-03-11T00:29:01.984Z,1.73
2023-03-11T00:32:01.968Z,1.98
2023-03-11T00:35:02.035Z,1.42
2023-03-11T00:38:01.958Z,1.61
2023-03-11T00:41:01.999Z,1.32
2023-03-11T00:44:02.006Z,1.89
2023-03-11T00:47:02.002Z,2.41
2023-03-11T00:50:02.055Z,1.76
2023-03-11T00:53:02.050Z,1.67
2023-03-11T00:56:02.071Z,1.85
2023-03-11T00:59:02.070Z,2.12
2023-03-11T01:02:02.067Z,2.16
2023-03-11T01:05:02.078Z,1.56
2023-03-11T01:08:02.056Z,1.72
2023-03-11T01:11:02.108Z,1.63
2023-03-11T01:14:02.088Z,2.41
2023-03-11T01:17:02.090Z,2.14
2023-03-11T01:20:02.048Z,1.8
2023-03-11T01:23:02.066Z,2.17
2023-03-11T01:26:02.009Z,1.98
2023-03-11T01:29:02.093Z,1.65
2023-03-11T01:32:02.103Z,2.16
2023-03-11T01:35:02.058Z,2.1
2023-03-11T01:38:02.105Z,2.1
2023-03-11T01:41:02.100Z,2.21
2023-03-11T01:44:02.088Z,2.42
2023-03-11T01:47:02.147Z,1.91
2023-03-11T01:50:02.003Z,2.06
2023-03-11T01:53:02.033Z,2.68
2023-03-11T01:56:02.066Z,2.12
2023-03-11T01:59:02.044Z,2.4
2023-03-11T02:02:02.140Z,2.22
2023-03-11T02:05:02.074Z,2.43
2023-03-11T02:08:02.038Z,2.02
2023-03-11T02:11:02.132Z,2.35
2023-03-11T02:14:02.058Z,3.12
2023-03-11T02:17:02.081Z,3.51
2023-03-11T02:20:02.082Z,3.05
2023-03-11T02:23:02.074Z,2.11
2023-03-11T02:26:02.144Z,2.65
2023-03-11T02:29:02.112Z,2.61
2023-03-11T02:32:02.093Z,2.16
2023-03-11T02:35:02.066Z,2.46
2023-03-11T02:38:02.192Z,2.21
2023-03-11T02:41:02.148Z,2.24
2023-03-11T02:44:02.178Z,2.41
2023-03-11T02:47:02.159Z,1.97
2023-03-11T02:50:02.164Z,1.47
2023-03-11T02:53:02.102Z,2.21
2023-03-11T02:56:02.183Z,1.74
2023-03-11T02:59:02.095Z,2.13
2023-03-11T03:02:02.132Z,1.7
2023-03-11T03:05:02.114Z,1.47
2023-03-11T03:08:02.081Z,1.72
2023-03-11T03:11:02.238Z,1.62
2023-03-11T03:14:02.168Z,1.88
2023-03-11T03:17:02.189Z,1.85
2023-03-11T03:20:02.178Z,1.85
2023-03-11T03:23:02.093Z,1.48
2023-03-11T03:26:02.129Z,2.33
2023-03-11T03:29:02.190Z,1.92
2023-03-11T03:32:02.233Z,1.53
2023-03-11T03:35:02.200Z,0.98
2023-03-11T03:38:02.137Z,1.29
2023-03-11T03:41:02.130Z,1.31
2023-03-11T03:44:02.401Z,1.59
2023-03-11T03:47:02.167Z,1.26
2023-03-11T03:50:02.208Z,1.2
2023-03-11T03:53:02.138Z,1.2
2023-03-11T03:56:02.190Z,1.59
2023-03-11T03:59:02.303Z,1.48
2023-03-11T04:02:02.343Z,1.72
2023-03-11T04:05:02.146Z,1.42
2023-03-11T04:08:02.193Z,1.45
2023-03-11T04:11:02.208Z,1.36
2023-03-11T04:14:02.283Z,1.71
2023-03-11T04:17:02.243Z,1.93
2023-03-11T04:20:02.184Z,1.52
2023-03-11T04:23:02.178Z,1.53
2023-03-11T04:26:02.237Z,1.68
2023-03-11T04:29:02.245Z,1.42
2023-03-11T04:32:02.219Z,1.39
2023-03-11T04:35:02.230Z,1.27
2023-03-11T04:38:02.152Z,1.53
2023-03-11T04:41:02.237Z,1.08
2023-03-11T04:44:02.162Z,1.27
2023-03-11T04:47:02.279Z,1.22
2023-03-11T04:50:02.170Z,1.34
2023-03-11T04:53:02.240Z,1.42
2023-03-11T04:56:02.189Z,0.92
2023-03-11T04:59:02.238Z,0.87
2023-03-11T05:02:02.281Z,1.31
2023-03-11T05:05:02.225Z,1.43
2023-03-11T05:08:02.249Z,1.09
2023-03-11T05:11:02.249Z,1.01
2023-03-11T05:14:02.265Z,1.05
2023-03-11T05:17:02.203Z,1.01
2023-03-11T05:20:02.198Z,1.04
2023-03-11T05:23:02.230Z,1.04
2023-03-11T05:26:02.254Z,1.04
2023-03-11T05:29:02.273Z,0.96
2023-03-11T05:32:02.229Z,1.41
2023-03-11T05:35:02.295Z,1.4
2023-03-11T05:38:02.250Z,1.06
2023-03-11T05:41:02.270Z,0.79
2023-03-11T05:44:02.286Z,0.74
2023-03-11T05:47:02.347Z,0.85
2023-03-11T05:50:02.215Z,0.85
2023-03-11T05:53:02.299Z,0.79
2023-03-11T05:56:02.258Z,1.23
2023-03-11T05:59:02.318Z,1.36
2023-03-11T06:02:02.340Z,1.09
2023-03-11T06:05:02.380Z,1.44
2023-03-11T06:08:02.314Z,1.11
2023-03-11T06:11:02.383Z,1.12
2023-03-11T06:14:02.330Z,0.99
2023-03-11T06:17:02.265Z,1.19
2023-03-11T06:20:02.237Z,0.99
2023-03-11T06:23:02.323Z,1.11
2023-03-11T06:26:02.258Z,0.94
2023-03-11T06:29:02.269Z,0.9
2023-03-11T06:32:02.283Z,1.38
2023-03-11T06:35:02.330Z,1.02
2023-03-11T06:38:02.357Z,0.91
2023-03-11T06:41:02.327Z,0.91
2023-03-11T06:44:02.296Z,1.24
2023-03-11T06:47:02.270Z,1.08
2023-03-11T06:50:02.299Z,1.25
2023-03-11T06:53:02.280Z,0.9
2023-03-11T06:56:02.378Z,1.02
2023-03-11T06:59:02.280Z,1.42
2023-03-11T07:02:02.341Z,0.98
2023-03-11T07:05:02.301Z,1.17
2023-03-11T07:08:02.376Z,0.99
2023-03-11T07:11:02.298Z,1.19
2023-03-11T07:14:02.367Z,0.95
2023-03-11T07:17:02.417Z,1.27
2023-03-11T07:20:02.305Z,1.14
2023-03-11T07:23:02.320Z,1.26
2023-03-11T07:26:02.361Z,1.25
2023-03-11T07:29:02.396Z,1.36
2023-03-11T07:32:02.433Z,1.16
2023-03-11T07:35:02.376Z,1.08
2023-03-11T07:38:02.305Z,0.86
2023-03-11T07:41:02.405Z,1.32
2023-03-11T07:44:02.319Z,0.99
2023-03-11T07:47:02.338Z,0.83
2023-03-11T07:50:02.338Z,1.02
2023-03-11T07:53:02.413Z,0.86
2023-03-11T07:56:02.313Z,1.12
2023-03-11T07:59:02.363Z,0.96
2023-03-11T08:02:02.434Z,1.05
2023-03-11T08:05:02.451Z,1
2023-03-11T08:08:02.311Z,1.04
2023-03-11T08:11:02.386Z,0.99
2023-03-11T08:14:02.399Z,1.02
2023-03-11T08:17:02.348Z,1.11
2023-03-11T08:20:02.423Z,0.82
2023-03-11T08:23:02.420Z,1.08
2023-03-11T08:26:02.406Z,1.13
2023-03-11T08:29:02.349Z,1.11
2023-03-11T08:32:02.396Z,1.07
2023-03-11T08:35:02.360Z,0.96
2023-03-11T08:38:02.428Z,0.71
2023-03-11T08:41:02.449Z,0.94
2023-03-11T08:44:02.385Z,0.78
2023-03-11T08:47:02.377Z,0.76
2023-03-11T08:50:02.422Z,0.91
2023-03-11T08:53:02.448Z,1.09
2023-03-11T08:56:02.455Z,0.91
2023-03-11T08:59:02.506Z,0.82
2023-03-11T09:02:02.415Z,0.91
2023-03-11T09:05:02.394Z,0.9
2023-03-11T09:08:04.336Z,0.86
2023-03-11T09:11:02.482Z,0.87
2023-03-11T09:14:02.454Z,0.95
2023-03-11T09:17:02.467Z,0.7
2023-03-11T09:20:02.407Z,0.76
2023-03-11T09:23:02.507Z,0.8
2023-03-11T09:26:02.411Z,1.17
2023-03-11T09:29:02.638Z,1.11
2023-03-11T09:32:02.520Z,1.04
2023-03-11T09:35:02.469Z,0.93
2023-03-11T09:38:02.488Z,0.93
2023-03-11T09:41:02.421Z,1.1
2023-03-11T09:44:02.394Z,1.52
2023-03-11T09:47:02.478Z,1.39
2023-03-11T09:50:02.421Z,1.34
2023-03-11T09:53:03.142Z,1.26
2023-03-11T09:56:02.497Z,1.02
2023-03-11T09:59:02.475Z,1.64
2023-03-11T10:02:02.475Z,1.39
2023-03-11T10:05:02.419Z,1.27
2023-03-11T10:08:02.516Z,1.04
2023-03-11T10:11:02.504Z,1.25
2023-03-11T10:14:02.442Z,1.01
2023-03-11T10:17:02.536Z,1.6
2023-03-11T10:20:02.438Z,1.59
2023-03-11T10:23:02.531Z,1
2023-03-11T10:26:02.434Z,1.12
2023-03-11T10:29:02.590Z,1.01
2023-03-11T10:32:02.540Z,1.2
2023-03-11T10:35:02.612Z,0.94
2023-03-11T10:38:02.530Z,0.92
2023-03-11T10:41:02.462Z,0.84
2023-03-11T10:44:02.502Z,0.79
2023-03-11T10:47:02.453Z,1.09
2023-03-11T10:50:02.470Z,1.31
2023-03-11T10:53:02.530Z,1.19
2023-03-11T10:56:02.562Z,0.99
2023-03-11T10:59:02.558Z,1.42
2023-03-11T11:02:02.641Z,1.12
2023-03-11T11:05:02.721Z,0.99
2023-03-11T11:08:02.610Z,1.23
2023-03-11T11:11:02.495Z,0.85
2023-03-11T11:14:02.541Z,0.67
2023-03-11T11:17:02.595Z,0.7
2023-03-11T11:20:02.591Z,1.09
2023-03-11T11:23:02.642Z,1.27
2023-03-11T11:26:02.595Z,1.2
2023-03-11T11:29:02.828Z,1.49
2023-03-11T11:32:02.587Z,0.98
2023-03-11T11:35:02.605Z,1.27
2023-03-11T11:38:02.513Z,1.38
2023-03-11T11:41:02.538Z,1.15
2023-03-11T11:44:02.539Z,1.48
2023-03-11T11:47:03.411Z,1.22
2023-03-11T11:50:02.656Z,1.77
2023-03-11T11:53:02.595Z,1.2
2023-03-11T11:56:02.617Z,1.33
2023-03-11T11:59:02.503Z,1.08
2023-03-11T12:02:02.543Z,0.94
2023-03-11T12:05:02.626Z,0.85
2023-03-11T12:08:02.592Z,1.56
2023-03-11T12:11:02.650Z,1.41
2023-03-11T12:14:02.530Z,1.24
2023-03-11T12:17:04.196Z,1.84
2023-03-11T12:20:02.618Z,1.41
2023-03-11T12:23:02.793Z,1.01
2023-03-11T12:26:02.655Z,0.61
2023-03-11T12:29:02.639Z,0.62
2023-03-11T12:32:02.680Z,0.69
2023-03-11T12:35:02.586Z,0.94
2023-03-11T12:38:02.597Z,0.67
2023-03-11T12:41:02.691Z,1.07
2023-03-11T12:44:02.690Z,1.11
2023-03-11T12:47:02.602Z,0.63
2023-03-11T12:50:02.722Z,1.09
2023-03-11T12:53:02.690Z,1.17
2023-03-11T12:56:02.689Z,1.05
2023-03-11T12:59:02.712Z,1.32
2023-03-11T13:02:02.689Z,1.49
2023-03-11T13:05:02.626Z,1.44
2023-03-11T13:08:02.649Z,1.44
2023-03-11T13:11:02.682Z,1.31
2023-03-11T13:14:02.621Z,0.89
2023-03-11T13:17:02.690Z,1.04
2023-03-11T13:20:03.003Z,1.16
2023-03-11T13:23:02.627Z,1.04
2023-03-11T13:26:02.791Z,1.07
2023-03-11T13:29:02.678Z,0.85
2023-03-11T13:32:02.651Z,1.02
2023-03-11T13:35:02.681Z,0.67
2023-03-11T13:38:02.677Z,1.08
2023-03-11T13:41:02.715Z,1.13
2023-03-11T13:44:02.681Z,1.23
2023-03-11T13:47:02.655Z,1.25
2023-03-11T13:50:02.782Z,0.68
2023-03-11T13:53:02.793Z,0.73
2023-03-11T13:56:02.660Z,1.07
2023-03-11T13:59:02.672Z,0.82
2023-03-11T14:02:02.697Z,0.52
2023-03-11T14:05:02.755Z,1.02
2023-03-11T14:08:02.898Z,0.75
2023-03-11T14:11:02.844Z,1.1
2023-03-11T14:14:02.748Z,0.64
2023-03-11T14:17:02.733Z,0.68
2023-03-11T14:20:02.822Z,1.28
2023-03-11T14:23:02.710Z,1.45
2023-03-11T14:26:02.747Z,1.34
2023-03-11T14:29:02.738Z,1.33
2023-03-11T14:32:02.697Z,1.06
2023-03-11T14:35:02.734Z,0.71
2023-03-11T14:38:02.698Z,0.69
2023-03-11T14:41:02.758Z,1.12
2023-03-11T14:44:02.854Z,1.37
2023-03-11T14:47:02.703Z,1.54
2023-03-11T14:50:02.849Z,1.44
2023-03-11T14:53:04.671Z,1.33
2023-03-11T14:56:02.746Z,1.41
2023-03-11T14:59:07.532Z,1.81
2023-03-11T15:02:02.773Z,1.87
2023-03-11T15:05:02.852Z,1.7
2023-03-11T15:08:02.748Z,1.61
2023-03-11T15:11:03.433Z,1.31
2023-03-11T15:14:02.892Z,1.54
2023-03-11T15:17:02.824Z,1.52
2023-03-11T15:20:02.721Z,1.22
2023-03-11T15:23:02.841Z,1.39
2023-03-11T15:26:05.214Z,1.35
2023-03-11T15:29:02.880Z,0.96
2023-03-11T15:32:02.791Z,0.77
2023-03-11T15:35:02.829Z,1.3
2023-03-11T15:38:02.838Z,0.93
2023-03-11T15:41:02.730Z,1.09
2023-03-11T15:44:05.245Z,1.39
2023-03-11T15:47:02.816Z,1.55
2023-03-11T15:50:02.915Z,1.17
2023-03-11T15:53:02.767Z,1.44
2023-03-11T15:56:07.180Z,1.4
2023-03-11T15:59:02.848Z,1.64
2023-03-11T16:02:02.846Z,1.38
2023-03-11T16:05:03.024Z,0.81
2023-03-11T16:08:02.844Z,0.78
2023-03-11T16:11:02.809Z,1.06
2023-03-11T16:14:02.804Z,1.09
2023-03-11T16:17:02.798Z,1.04
2023-03-11T16:20:02.946Z,1.15
2023-03-11T16:23:02.844Z,1.22
2023-03-11T16:26:02.834Z,1.4
2023-03-11T16:29:12.810Z,1.16
2023-03-11T16:32:02.870Z,1.32
2023-03-11T16:35:02.817Z,1.11
2023-03-11T16:38:02.767Z,1.36
2023-03-11T16:41:02.948Z,1.09
2023-03-11T16:44:02.854Z,0.84
2023-03-11T16:47:02.817Z,0.67
2023-03-11T16:50:02.985Z,0.68
2023-03-11T16:53:02.796Z,0.68
2023-03-11T16:56:02.918Z,0.84
2023-03-11T16:59:02.805Z,0.65
2023-03-11T17:02:02.869Z,0.66
2023-03-11T17:05:03.004Z,0.4
2023-03-11T17:08:02.831Z,0.49
2023-03-11T17:11:02.885Z,0.46
2023-03-11T17:14:15.412Z,0.56
2023-03-11T17:17:02.832Z,0.37
2023-03-11T17:20:03.028Z,0.35
2023-03-11T17:23:02.815Z,0.18
2023-03-11T17:26:02.909Z,0.01
2023-03-11T17:29:02.893Z,0
2023-03-11T17:32:02.874Z,0.12
2023-03-11T17:35:02.889Z,0.13
2023-03-11T17:38:02.890Z,0.05
2023-03-11T17:41:03.049Z,0.15
2023-03-11T17:44:05.926Z,0.19
2023-03-11T17:47:02.926Z,0.08
2023-03-11T17:50:03.151Z,0.31
2023-03-11T17:53:02.871Z,0.22
2023-03-11T17:56:02.953Z,0.19
2023-03-11T17:59:02.934Z,0.15
2023-03-11T18:02:02.878Z,0.06
2023-03-11T18:05:03.038Z,0.03
2023-03-11T18:08:02.946Z,0.03
2023-03-11T18:11:02.901Z,0.03
2023-03-11T18:14:03.060Z,0.06
2023-03-11T18:17:02.903Z,0
2023-03-11T18:20:03.214Z,0
2023-03-11T18:23:03.117Z,0.06
2023-03-11T18:26:02.910Z,0.16
2023-03-11T18:29:02.822Z,0.05
2023-03-11T18:32:03.002Z,0.06
2023-03-11T18:35:03.039Z,0.04
2023-03-11T18:38:02.951Z,0
2023-03-11T18:41:02.922Z,0.01
2023-03-11T18:44:02.921Z,0.19
2023-03-11T18:47:02.866Z,0.17
2023-03-11T18:50:03.090Z,0.13
2023-03-11T18:53:03.036Z,0.06
2023-03-11T18:56:05.491Z,0.04
2023-03-11T18:59:02.907Z,0.06
2023-03-11T19:02:02.959Z,0.01
2023-03-11T19:05:03.224Z,0.12
2023-03-11T19:08:02.913Z,0.01
2023-03-11T19:11:02.938Z,0.04
2023-03-11T19:14:02.963Z,0.08
2023-03-11T19:17:03.031Z,0.06
2023-03-11T19:20:03.035Z,0.11
2023-03-11T19:23:03.020Z,0.11
2023-03-11T19:26:03.735Z,0.02
2023-03-11T19:29:02.995Z,0
2023-03-11T19:32:03.627Z,0.09
2023-03-11T19:35:03.032Z,0.12
2023-03-11T19:38:02.937Z,0.16
2023-03-11T19:41:02.965Z,0.2
2023-03-11T19:44:02.942Z,0.16
2023-03-11T19:47:03.061Z,0.2
2023-03-11T19:50:03.098Z,0.18
2023-03-11T19:53:02.959Z,0.14
2023-03-11T19:56:03.004Z,0.22
2023-03-11T19:59:03.000Z,0.14
2023-03-11T20:02:03.122Z,0.14
2023-03-11T20:05:03.051Z,0.22
2023-03-11T20:08:02.966Z,0.16
2023-03-11T20:11:03.053Z,0.12
2023-03-11T20:14:03.109Z,0.14
2023-03-11T20:17:03.044Z,0.16
2023-03-11T20:20:03.191Z,0.14
2023-03-11T20:23:02.965Z,0.23
2023-03-11T20:26:03.095Z,0.25
2023-03-11T20:29:03.064Z,0.18
2023-03-11T20:32:03.067Z,0.14
2023-03-11T20:35:03.082Z,0.16
2023-03-11T20:38:03.033Z,0.23
2023-03-11T20:41:03.019Z,0.21
2023-03-11T20:44:03.010Z,0.18
2023-03-11T20:47:03.108Z,0.26
2023-03-11T20:50:03.153Z,0.23
2023-03-11T20:53:03.041Z,0.26
2023-03-11T20:56:03.117Z,0.26
2023-03-11T20:59:03.041Z,0.32
2023-03-11T21:02:03.116Z,0.25
2023-03-11T21:05:03.136Z,0.2
2023-03-11T21:08:03.143Z,0.37
2023-03-11T21:11:03.101Z,0.24
2023-03-11T21:14:03.157Z,0.18
2023-03-11T21:17:03.121Z,0.3
2023-03-11T21:20:03.137Z,0.16
2023-03-11T21:23:03.127Z,0.18
2023-03-11T21:26:03.184Z,0.3
2023-03-11T21:29:03.086Z,0.44
2023-03-11T21:32:03.135Z,0.31
2023-03-11T21:35:03.193Z,0.39
2023-03-11T21:38:03.164Z,0.21
2023-03-11T21:41:03.181Z,0.26
2023-03-11T21:44:03.113Z,0.22
2023-03-11T21:47:03.114Z,0.16
2023-03-11T21:50:03.210Z,0.23
2023-03-11T21:53:03.235Z,0.33
2023-03-11T21:56:03.081Z,0.26
2023-03-11T21:59:03.131Z,0.29
2023-03-11T22:02:03.414Z,0.29
2023-03-11T22:05:03.214Z,0.36
2023-03-11T22:08:03.060Z,0.39
2023-03-11T22:11:03.131Z,0.42
2023-03-11T22:14:03.057Z,0.27
2023-03-11T22:17:03.125Z,0.27
2023-03-11T22:20:03.486Z,0.35
2023-03-11T22:23:03.105Z,0.44
2023-03-11T22:26:03.161Z,0.26
2023-03-11T22:29:04.037Z,0.34
2023-03-11T22:32:03.076Z,0.53
2023-03-11T22:35:03.104Z,0.44
2023-03-11T22:38:03.115Z,0.36
2023-03-11T22:41:03.151Z,0.44
2023-03-11T22:44:03.243Z,0.36
2023-03-11T22:47:03.066Z,0.34
2023-03-11T22:50:03.153Z,0.34
2023-03-11T22:53:04.470Z,0.22
2023-03-11T22:56:04.478Z,0.25
2023-03-11T22:59:03.148Z,0.27
2023-03-11T23:02:03.149Z,0.39
2023-03-11T23:05:03.189Z,0.33
2023-03-11T23:08:03.207Z,0.46
2023-03-11T23:11:03.225Z,0.34
2023-03-11T23:14:03.099Z,0.28
2023-03-11T23:17:03.149Z,0.27
2023-03-11T23:20:03.149Z,0.25
2023-03-11T23:23:03.188Z,0.18
2023-03-11T23:26:03.207Z,0.23
2023-03-11T23:29:03.230Z,0.31
2023-03-11T23:32:03.139Z,0.29
2023-03-11T23:35:03.109Z,0.36
2023-03-11T23:38:03.238Z,0.39
2023-03-11T23:41:03.219Z,0.32
2023-03-11T23:44:04.516Z,0.21
2023-03-11T23:47:03.198Z,0.17
2023-03-11T23:50:03.170Z,0.68
2023-03-11T23:53:03.141Z,0.3
2023-03-11T23:56:03.195Z,0.26
2023-03-11T23:59:03.212Z,0.19
